Time;durP1;ratioP1;P1;durP2;ratioP2;P2;SDS_P1;SDS_P2;PMS_P1;PMS_P2;Temp;Humidity;BMP_temperature;BMP_pressure;BME280_temperature;BME280_humidity;BME280_pressure;Samples;Min_cycle;Max_cycle;Signal;HPM_P1;HPM_P2
2022/07/13 00:01:32;;;;;;;2.70;1.40;;;;;;;22.22;50.07;99246.34;5026693;28;20104;-68
2022/07/13 00:03:57;;;;;;;4.03;2.22;;;;;;;22.18;50.46;99245.09;5027030;28;20104;-71
2022/07/13 00:06:23;;;;;;;3.70;2.20;;;;;;;22.16;50.48;99243.66;5026931;28;20217;-69
2022/07/13 00:08:49;;;;;;;1.65;1.00;;;;;;;22.15;50.59;99240.09;5026168;28;20272;-71
2022/07/13 00:11:14;;;;;;;5.68;1.55;;;;;;;22.19;50.53;99245.94;5026302;28;20091;-75
2022/07/13 00:13:40;;;;;;;2.67;1.38;;;;;;;22.22;50.67;99248.19;5026712;28;20030;-73
2022/07/13 00:16:05;;;;;;;4.13;1.65;;;;;;;22.20;50.60;99247.59;5037118;28;20110;-72
2022/07/13 00:18:31;;;;;;;3.20;1.70;;;;;;;22.18;50.67;99247.78;5024779;28;20243;-69
2022/07/13 00:20:57;;;;;;;3.63;1.88;;;;;;;22.12;50.86;99243.22;5037824;28;20234;-69
2022/07/13 00:23:23;;;;;;;5.15;1.60;;;;;;;22.07;51.32;99243.81;5028263;28;20026;-70
2022/07/13 00:25:48;;;;;;;3.65;1.58;;;;;;;22.02;51.21;99235.53;5026832;28;20084;-72
2022/07/13 00:28:14;;;;;;;5.78;1.70;;;;;;;22.03;51.07;99241.75;5027249;28;20142;-69
2022/07/13 00:30:39;;;;;;;6.43;1.30;;;;;;;22.03;50.97;99241.75;5030115;28;20045;-71
2022/07/13 00:33:05;;;;;;;4.70;1.55;;;;;;;22.03;51.02;99247.97;5029531;28;20033;-73
2022/07/13 00:35:31;;;;;;;3.53;1.55;;;;;;;21.99;51.28;99232.41;5035226;28;20134;-69
2022/07/13 00:37:56;;;;;;;2.83;1.40;;;;;;;21.99;51.57;99241.31;5036916;28;20131;-69
2022/07/13 00:40:22;;;;;;;3.00;1.40;;;;;;;22.02;51.51;99235.53;5030328;28;20029;-69
2022/07/13 00:42:48;;;;;;;7.88;1.50;;;;;;;22.04;51.50;99243.41;5029543;28;20038;-70
2022/07/13 00:45:13;;;;;;;2.30;1.27;;;;;;;22.02;51.49;99240.94;5029081;28;20263;-69
2022/07/13 00:47:41;;;;;;;4.18;1.70;;;;;;;22.00;51.29;99243.00;5031611;28;20048;-69
2022/07/13 00:50:07;;;;;;;2.95;1.60;;;;;;;22.00;51.32;99244.84;5027633;28;20092;-70
2022/07/13 00:52:37;;;;;;;2.92;1.30;;;;;;;22.00;51.40;99236.75;5029465;28;20029;-69
2022/07/13 00:55:05;;;;;;;2.55;1.55;;;;;;;22.01;51.43;99239.25;5030315;28;20080;-70
2022/07/13 00:57:32;;;;;;;3.42;1.92;;;;;;;22.05;51.54;99231.59;5028363;28;20190;-66
2022/07/13 00:59:59;;;;;;;2.25;1.27;;;;;;;22.04;51.54;99238.00;5035810;28;20041;-68
2022/07/13 01:02:25;;;;;;;3.15;1.48;;;;;;;22.04;51.50;99238.00;5036560;28;20221;-68
2022/07/13 01:04:50;;;;;;;5.30;1.88;;;;;;;21.95;51.26;99245.44;5029954;28;20033;-68
2022/07/13 01:07:16;;;;;;;2.05;1.65;;;;;;;21.85;51.44;99239.63;5029918;28;20080;-68
2022/07/13 01:09:42;;;;;;;3.28;1.40;;;;;;;21.77;51.58;99235.25;5030244;28;20155;-69
2022/07/13 01:12:07;;;;;;;3.28;1.60;;;;;;;21.76;51.72;99238.97;5030489;28;20043;-69
2022/07/13 01:14:34;;;;;;;9.15;1.63;;;;;;;21.75;51.69;99240.00;5030210;28;20038;-70
2022/07/13 01:17:00;;;;;;;7.05;2.28;;;;;;;21.74;51.75;99241.03;5029742;28;20061;-69
2022/07/13 01:19:25;;;;;;;2.83;1.55;;;;;;;21.73;51.68;99237.53;5030094;28;20038;-68
2022/07/13 01:21:59;;;;;;;3.92;1.83;;;;;;;21.73;51.70;99228.59;5030341;28;20057;-70
2022/07/13 01:24:26;;;;;;;3.03;1.60;;;;;;;21.71;51.68;99227.97;5030135;28;20026;-67
2022/07/13 01:26:52;;;;;;;4.90;2.00;;;;;;;21.66;51.75;99230.44;5029382;28;20095;-68
2022/07/13 01:29:17;;;;;;;4.32;1.58;;;;;;;21.63;52.04;99227.13;5029549;28;20138;-68
2022/07/13 01:31:42;;;;;;;3.22;1.50;;;;;;;21.63;52.20;99224.44;5048001;28;20088;-67
2022/07/13 01:34:09;;;;;;;1.98;1.75;;;;;;;21.62;52.17;99225.47;5031507;28;20045;-68
2022/07/13 01:36:35;;;;;;;4.50;1.60;;;;;;;21.58;52.04;99224.16;5029616;28;20243;-68
2022/07/13 01:39:02;;;;;;;3.17;2.08;;;;;;;21.53;52.22;99226.63;5020506;28;20031;-69
2022/07/13 01:41:31;;;;;;;4.90;1.55;;;;;;;21.51;52.45;99223.31;5029459;28;20085;-68
2022/07/13 01:43:58;;;;;;;2.47;1.50;;;;;;;21.50;52.33;99224.34;5029656;28;20062;-69
2022/07/13 01:46:27;;;;;;;2.95;1.80;;;;;;;21.49;52.44;99225.38;5029439;28;20032;-69
2022/07/13 01:48:56;;;;;;;3.65;1.45;;;;;;;21.47;52.63;99224.72;5028709;28;20072;-68
2022/07/13 01:51:21;;;;;;;2.97;1.55;;;;;;;21.49;52.48;99226.19;5029144;28;20250;-68
2022/07/13 01:53:47;;;;;;;3.08;1.92;;;;;;;21.49;52.42;99214.59;5029303;28;20087;-69
2022/07/13 01:56:12;;;;;;;4.55;1.90;;;;;;;21.55;52.40;99223.72;5029388;28;20030;-70
2022/07/13 01:58:38;;;;;;;3.30;2.08;;;;;;;21.52;52.46;99222.28;5028829;28;20050;-70
2022/07/13 02:01:04;;;;;;;3.58;1.88;;;;;;;21.50;52.75;99221.66;5029258;28;20096;-69
2022/07/13 02:03:31;;;;;;;5.97;2.15;;;;;;;21.48;52.75;99221.81;5029492;28;20052;-69
2022/07/13 02:05:58;;;;;;;4.78;1.90;;;;;;;21.48;53.03;99223.72;5029364;28;20026;-69
2022/07/13 02:08:27;;;;;;;3.10;1.58;;;;;;;21.45;52.87;99218.72;5028758;28;20248;-68
2022/07/13 02:10:53;;;;;;;3.70;1.63;;;;;;;21.46;52.95;99225.75;5028962;28;20048;-69
2022/07/13 02:13:19;;;;;;;5.68;1.67;;;;;;;21.47;52.94;99227.41;5028800;28;20101;-67
2022/07/13 02:15:45;;;;;;;3.47;1.98;;;;;;;21.54;52.91;99222.91;5040670;28;20062;-69
2022/07/13 02:18:11;;;;;;;3.38;1.85;;;;;;;21.59;52.91;99215.06;5028854;28;20041;-69
2022/07/13 02:20:36;;;;;;;2.92;1.58;;;;;;;21.61;52.91;99213.03;5028784;28;20029;-68
2022/07/13 02:23:02;;;;;;;3.42;1.67;;;;;;;21.63;53.06;99210.13;5034682;28;20025;-69
2022/07/13 02:25:28;;;;;;;4.03;1.88;;;;;;;21.57;52.93;99208.22;5029073;28;20097;-68
2022/07/13 02:27:54;;;;;;;2.80;2.22;;;;;;;21.62;53.09;99205.75;5027628;28;20143;-69
2022/07/13 02:30:19;;;;;;;4.07;2.00;;;;;;;21.66;53.14;99204.34;5028334;28;20037;-68
2022/07/13 02:32:46;;;;;;;6.57;1.80;;;;;;;21.70;53.38;99210.97;5028218;28;20030;-68
2022/07/13 02:35:13;;;;;;;5.13;2.50;;;;;;;21.73;53.58;99205.19;5029171;28;20133;-68
2022/07/13 02:37:39;;;;;;;6.47;2.85;;;;;;;21.76;53.64;99198.56;5028254;28;20080;-69
2022/07/13 02:40:07;;;;;;;7.25;2.88;;;;;;;21.81;53.61;99196.13;5028299;28;20191;-69
2022/07/13 02:42:32;;;;;;;5.07;2.60;;;;;;;21.92;53.50;99198.22;5028902;28;20093;-69
2022/07/13 02:44:58;;;;;;;4.05;2.53;;;;;;;21.98;52.91;99199.25;5028404;28;20021;-68
2022/07/13 02:47:24;;;;;;;8.60;3.28;;;;;;;21.96;53.06;99198.63;5028393;28;20235;-68
2022/07/13 02:49:49;;;;;;;3.33;2.42;;;;;;;21.99;52.37;99195.53;5028434;28;20049;-69
2022/07/13 02:52:16;;;;;;;6.75;2.70;;;;;;;22.07;52.26;99195.31;5028367;28;20215;-69
2022/07/13 02:54:41;;;;;;;5.40;3.10;;;;;;;22.15;51.69;99198.88;5028445;28;20026;-67
2022/07/13 02:57:07;;;;;;;4.97;2.25;;;;;;;22.22;51.38;99192.47;5028337;28;20028;-68
2022/07/13 02:59:33;;;;;;;6.30;2.90;;;;;;;22.27;51.42;99193.72;5028339;28;20185;-67
2022/07/13 03:02:00;;;;;;;6.45;2.80;;;;;;;22.28;50.82;99196.19;5027409;28;20062;-69
2022/07/13 03:04:25;;;;;;;7.90;2.70;;;;;;;22.32;51.04;99196.59;5027999;28;20034;-69
2022/07/13 03:06:51;;;;;;;5.25;2.40;;;;;;;22.27;51.30;99199.09;5010147;28;20026;-67
2022/07/13 03:09:17;;;;;;;8.43;2.72;;;;;;;22.25;51.41;99205.53;5027999;28;20033;-68
2022/07/13 03:11:42;;;;;;;6.22;2.38;;;;;;;22.25;51.56;99207.38;5027482;28;20254;-69
2022/07/13 03:14:08;;;;;;;4.13;2.63;;;;;;;22.27;51.59;99215.28;5027988;28;20128;-68
2022/07/13 03:16:34;;;;;;;5.18;2.88;;;;;;;22.33;51.62;99209.03;5024304;28;20035;-68
2022/07/13 03:19:00;;;;;;;5.07;2.67;;;;;;;22.51;51.17;99211.16;5008646;28;20034;-68
2022/07/13 03:21:29;;;;;;;8.45;3.30;;;;;;;22.76;50.78;99214.06;5012397;28;20045;-69
2022/07/13 03:23:57;;;;;;;4.75;2.92;;;;;;;23.14;50.08;99218.78;5023596;28;20045;-68
2022/07/13 03:26:24;;;;;;;9.57;3.50;;;;;;;23.46;48.93;99218.09;5027542;28;20117;-68
2022/07/13 03:28:49;;;;;;;8.80;2.78;;;;;;;23.73;47.92;99224.22;5028025;28;20044;-68
2022/07/13 03:31:15;;;;;;;6.20;2.78;;;;;;;23.83;47.42;99217.53;5027259;28;20042;-68
2022/07/13 03:33:41;;;;;;;9.60;3.67;;;;;;;23.89;47.54;99219.38;5026649;28;20038;-68
2022/07/13 03:36:07;;;;;;;7.82;3.13;;;;;;;24.01;47.13;99219.53;5027484;28;20025;-69
2022/07/13 03:38:33;;;;;;;8.27;2.95;;;;;;;24.17;46.39;99223.59;5027177;28;20076;-68
2022/07/13 03:40:59;;;;;;;11.38;2.88;;;;;;;24.33;45.82;99217.69;5027864;28;20223;-68
2022/07/13 03:43:25;;;;;;;9.65;3.38;;;;;;;24.44;45.08;99213.41;5026668;28;20107;-68
2022/07/13 03:45:50;;;;;;;5.65;2.75;;;;;;;24.47;45.14;99217.56;5027321;28;20065;-68
2022/07/13 03:48:17;;;;;;;6.07;2.85;;;;;;;24.47;44.75;99212.16;5027041;28;20025;-69
2022/07/13 03:50:47;;;;;;;8.75;3.00;;;;;;;24.50;44.53;99219.81;5020441;28;20022;-68
2022/07/13 03:53:13;;;;;;;8.60;3.25;;;;;;;24.48;44.25;99213.81;5009186;28;20179;-69
2022/07/13 03:55:40;;;;;;;7.30;2.42;;;;;;;24.44;44.29;99216.13;5027067;28;20053;-68
2022/07/13 03:58:06;;;;;;;5.75;3.08;;;;;;;24.45;44.34;99217.78;5027536;28;20037;-70
2022/07/13 04:00:32;;;;;;;5.00;2.70;;;;;;;24.53;44.06;99219.38;5026761;28;20146;-70
2022/07/13 04:02:58;;;;;;;7.28;2.80;;;;;;;24.52;44.49;99221.25;5026986;28;20040;-69
2022/07/13 04:05:25;;;;;;;10.50;3.17;;;;;;;24.45;44.40;99225.06;5026969;28;20089;-68
2022/07/13 04:07:50;;;;;;;5.28;2.83;;;;;;;24.32;44.93;99216.00;5026978;28;20045;-69
2022/07/13 04:10:19;;;;;;;9.27;2.90;;;;;;;24.25;45.21;99223.31;5026934;28;20060;-68
2022/07/13 04:12:46;;;;;;;5.82;2.38;;;;;;;24.21;45.60;99216.69;5027092;28;20192;-68
2022/07/13 04:15:12;;;;;;;5.70;2.22;;;;;;;24.20;45.41;99225.84;5026561;28;20047;-69
2022/07/13 04:17:41;;;;;;;3.60;2.60;;;;;;;24.17;45.77;99221.72;5026572;28;20053;-69
2022/07/13 04:20:08;;;;;;;5.40;3.05;;;;;;;24.08;45.93;99221.16;5026066;28;20044;-70
2022/07/13 04:22:33;;;;;;;8.20;2.85;;;;;;;23.99;46.19;99211.66;5026737;28;20034;-69
2022/07/13 04:24:59;;;;;;;4.75;2.30;;;;;;;23.94;45.91;99222.22;5026740;28;20100;-69
2022/07/13 04:27:25;;;;;;;5.07;2.63;;;;;;;23.89;46.07;99222.06;5026639;28;20251;-69
2022/07/13 04:29:50;;;;;;;5.93;2.30;;;;;;;23.89;46.29;99225.59;5026680;28;20097;-69
2022/07/13 04:32:16;;;;;;;5.00;1.92;;;;;;;23.95;46.21;99225.78;5026072;28;20030;-70
2022/07/13 04:34:41;;;;;;;3.67;1.85;;;;;;;24.12;45.86;99218.00;5026271;28;20022;-68
2022/07/13 04:37:07;;;;;;;3.67;2.17;;;;;;;24.29;45.25;99213.75;5026099;28;20207;-68
2022/07/13 04:39:32;;;;;;;6.78;1.95;;;;;;;24.50;44.96;99220.66;5012758;28;20061;-68
2022/07/13 04:41:59;;;;;;;8.32;2.47;;;;;;;24.81;44.60;99218.13;5009505;28;20038;-70
2022/07/13 04:44:26;;;;;;;6.38;2.55;;;;;;;25.10;44.13;99215.75;5026771;28;20026;-69
2022/07/13 04:46:52;;;;;;;4.38;2.38;;;;;;;25.44;43.46;99217.06;5026503;28;20037;-68
2022/07/13 04:49:19;;;;;;;8.88;2.40;;;;;;;25.77;43.06;99212.31;5026392;28;20073;-68
2022/07/13 04:51:47;;;;;;;3.35;1.80;;;;;;;26.04;42.67;99211.94;5026234;28;20096;-69
2022/07/13 04:54:12;;;;;;;9.82;2.80;;;;;;;26.31;41.84;99208.84;5026487;28;20087;-69
2022/07/13 04:56:37;;;;;;;6.80;2.38;;;;;;;26.47;41.90;99208.19;5026179;28;20037;-69
2022/07/13 04:59:03;;;;;;;8.43;2.50;;;;;;;26.69;41.50;99199.47;5026082;28;20058;-69
2022/07/13 05:01:28;;;;;;;7.47;2.67;;;;;;;26.90;41.15;99208.97;5026026;28;20034;-68
2022/07/13 05:03:54;;;;;;;12.77;2.65;;;;;;;27.11;40.62;99207.53;5026175;28;20289;-70
2022/07/13 05:06:20;;;;;;;22.63;2.88;;;;;;;27.24;40.63;99216.47;5026276;28;20053;-70
2022/07/13 05:08:45;;;;;;;13.13;2.53;;;;;;;27.40;40.44;99215.72;5026173;28;20096;-70
2022/07/13 05:11:10;;;;;;;9.18;2.17;;;;;;;27.56;40.02;99211.47;5026437;28;20101;-69
2022/07/13 05:13:36;;;;;;;10.00;2.20;;;;;;;27.63;39.92;99211.31;5026152;28;20042;-70
2022/07/13 05:16:01;;;;;;;8.68;2.70;;;;;;;27.70;39.93;99203.88;5026240;28;20159;-69
2022/07/13 05:18:27;;;;;;;10.30;2.67;;;;;;;27.80;40.15;99207.84;5025975;28;20037;-69
2022/07/13 05:20:52;;;;;;;7.20;2.60;;;;;;;27.88;39.85;99202.00;5025959;28;20037;-69
2022/07/13 05:23:18;;;;;;;10.77;2.83;;;;;;;28.01;39.54;99198.16;5026124;28;20045;-68
2022/07/13 05:25:43;;;;;;;8.80;2.42;;;;;;;28.11;39.28;99203.00;5026426;28;20037;-70
2022/07/13 05:28:09;;;;;;;5.97;2.45;;;;;;;28.17;38.92;99191.13;5018162;28;20105;-69
2022/07/13 05:30:34;;;;;;;8.80;2.63;;;;;;;28.20;38.81;99197.97;5021148;28;20065;-69
2022/07/13 05:33:00;;;;;;;7.60;2.80;;;;;;;28.26;39.15;99188.81;5018030;28;20200;-69
2022/07/13 05:35:26;;;;;;;9.63;3.00;;;;;;;28.28;39.29;99187.53;5030009;28;20127;-69
2022/07/13 05:37:51;;;;;;;9.32;2.55;;;;;;;28.38;39.26;99188.75;5029363;28;20029;-68
2022/07/13 05:40:17;;;;;;;5.82;2.30;;;;;;;28.44;38.97;99185.88;5029820;28;20037;-68
2022/07/13 05:42:43;;;;;;;6.72;2.78;;;;;;;28.45;38.96;99181.25;5029735;28;20080;-69
2022/07/13 05:45:09;;;;;;;9.95;2.70;;;;;;;28.49;38.59;99185.13;5029851;28;20187;-70
2022/07/13 05:47:35;;;;;;;6.30;2.42;;;;;;;28.54;38.47;99182.50;5029184;28;20109;-71
2022/07/13 05:50:00;;;;;;;5.35;2.10;;;;;;;28.57;38.61;99176.56;5028964;28;20108;-69
2022/07/13 05:52:26;;;;;;;4.05;1.90;;;;;;;28.58;38.48;99175.47;5029449;28;20273;-69
2022/07/13 05:54:52;;;;;;;5.63;1.55;;;;;;;28.52;38.28;99167.50;5029296;28;20051;-70
2022/07/13 05:57:18;;;;;;;9.52;2.00;;;;;;;28.53;38.25;99174.59;5028608;28;20053;-71
2022/07/13 05:59:43;;;;;;;3.50;1.65;;;;;;;28.55;37.84;99164.25;5029280;28;20026;-69
2022/07/13 06:02:09;;;;;;;4.32;2.17;;;;;;;28.56;38.19;99180.34;5027399;28;20048;-69
2022/07/13 06:04:34;;;;;;;6.47;1.70;;;;;;;28.54;38.08;99166.16;5029710;28;20089;-68
2022/07/13 06:07:00;;;;;;;4.70;1.60;;;;;;;28.48;38.21;99170.69;5028995;28;20030;-70
2022/07/13 06:09:25;;;;;;;8.23;2.38;;;;;;;28.43;38.45;99169.81;5028769;28;20154;-69
2022/07/13 06:11:51;;;;;;;5.50;1.60;;;;;;;28.38;38.43;99175.97;5028406;28;20250;-69
2022/07/13 06:14:16;;;;;;;2.53;1.42;;;;;;;28.30;38.31;99174.50;5028984;28;20116;-68
2022/07/13 06:16:42;;;;;;;4.50;1.45;;;;;;;28.23;38.03;99168.38;5027814;28;20075;-69
2022/07/13 06:19:07;;;;;;;3.90;1.83;;;;;;;28.15;37.87;99171.53;5028936;28;20250;-68
2022/07/13 06:21:33;;;;;;;4.78;1.40;;;;;;;28.00;38.26;99175.59;5028709;28;20114;-70
2022/07/13 06:23:58;;;;;;;7.35;1.73;;;;;;;27.86;38.70;99171.53;5029339;28;20048;-70
2022/07/13 06:26:24;;;;;;;4.43;1.33;;;;;;;27.71;38.49;99180.22;5028450;28;20052;-69
2022/07/13 06:28:49;;;;;;;4.10;1.73;;;;;;;27.49;39.01;99174.63;5028543;28;20337;-67
2022/07/13 06:31:14;;;;;;;5.65;2.10;;;;;;;27.27;39.17;99177.97;5028223;28;20143;-70
2022/07/13 06:33:41;;;;;;;3.63;1.55;;;;;;;27.08;39.78;99177.28;5028400;28;20068;-70
2022/07/13 06:36:08;;;;;;;11.80;1.88;;;;;;;26.95;39.29;99172.94;5028732;28;20036;-69
2022/07/13 06:38:33;;;;;;;5.72;1.67;;;;;;;26.84;39.43;99173.78;5027971;28;20029;-68
2022/07/13 06:40:59;;;;;;;9.23;2.17;;;;;;;26.75;39.63;99170.56;5028191;28;20060;-68
2022/07/13 06:43:25;;;;;;;4.20;1.70;;;;;;;26.71;39.57;99172.91;5028053;28;20111;-69
2022/07/13 06:45:50;;;;;;;4.97;1.65;;;;;;;26.70;39.90;99163.13;5028843;28;20120;-71
2022/07/13 06:48:16;;;;;;;5.07;2.00;;;;;;;26.66;39.81;99170.91;5027918;28;20068;-68
2022/07/13 06:50:41;;;;;;;5.32;2.30;;;;;;;26.64;40.13;99161.38;5018422;28;20021;-69
2022/07/13 06:53:07;;;;;;;4.65;2.08;;;;;;;26.61;40.31;99159.13;5028100;28;20042;-69
2022/07/13 06:55:34;;;;;;;5.68;2.00;;;;;;;26.57;39.88;99160.66;5028465;28;20033;-69
2022/07/13 06:57:59;;;;;;;3.55;1.65;;;;;;;26.59;40.45;99158.53;5028152;28;20070;-67
2022/07/13 07:00:25;;;;;;;3.30;1.70;;;;;;;26.60;40.25;99161.03;5027281;28;20033;-70
2022/07/13 07:02:50;;;;;;;6.20;2.17;;;;;;;26.60;40.31;99157.47;5028037;28;20057;-70
2022/07/13 07:05:16;;;;;;;2.90;1.42;;;;;;;26.59;40.32;99161.22;5028305;28;20032;-69
2022/07/13 07:07:41;;;;;;;5.28;2.10;;;;;;;26.58;40.27;99156.88;5027453;28;20247;-70
2022/07/13 07:10:09;;;;;;;7.30;1.90;;;;;;;26.56;40.07;99151.69;5027475;28;20037;-70
2022/07/13 07:12:35;;;;;;;7.57;1.90;;;;;;;26.57;39.94;99161.47;5027713;28;20072;-70
2022/07/13 07:15:01;;;;;;;2.22;1.38;;;;;;;26.58;40.21;99154.16;5027720;28;20026;-70
2022/07/13 07:17:26;;;;;;;4.60;1.35;;;;;;;26.58;40.02;99165.00;5027981;28;20049;-70
2022/07/13 07:19:57;;;;;;;3.90;1.30;;;;;;;26.57;40.10;99155.22;5028211;28;20032;-70
2022/07/13 07:22:23;;;;;;;;;;;;;;;26.48;40.13;99161.00;5027098;28;20026;-70
2022/07/13 07:24:50;;;;;;;3.03;1.23;;;;;;;26.49;40.00;99157.22;5027995;28;19955;-68
2022/07/13 07:27:15;;;;;;;7.75;1.90;;;;;;;26.50;39.82;99153.47;5028144;28;20022;-69
2022/07/13 07:29:41;;;;;;;5.07;1.20;;;;;;;26.47;39.61;99153.94;5027654;28;20057;-69
2022/07/13 07:32:06;;;;;;;4.45;1.45;;;;;;;26.46;39.34;99146.84;5026499;28;20255;-69
2022/07/13 07:34:32;;;;;;;6.13;1.23;;;;;;;26.48;39.51;99155.56;5027345;28;20097;-70
2022/07/13 07:36:58;;;;;;;5.03;1.52;;;;;;;26.49;39.08;99149.09;5027342;28;20038;-68
2022/07/13 07:39:23;;;;;;;1.75;0.95;;;;;;;26.48;39.20;99152.88;5037512;28;20032;-70
2022/07/13 07:41:49;;;;;;;5.25;1.20;;;;;;;26.47;38.96;99143.06;5027165;28;20072;-69
2022/07/13 07:44:16;;;;;;;4.22;1.88;;;;;;;26.45;38.90;99150.63;5022508;28;20040;-68
2022/07/13 07:46:41;;;;;;;3.40;0.98;;;;;;;26.43;38.75;99151.91;5027301;28;20278;-68
2022/07/13 07:49:07;;;;;;;5.80;1.15;;;;;;;26.42;38.85;99151.09;5027426;28;20667;-69
2022/07/13 07:51:32;;;;;;;2.17;1.00;;;;;;;26.40;38.91;99146.97;5026798;28;20096;-67
2022/07/13 07:53:58;;;;;;;3.50;1.23;;;;;;;26.40;38.42;99158.63;5026962;28;20030;-69
2022/07/13 07:56:24;;;;;;;2.28;1.00;;;;;;;26.39;37.91;99148.88;5027335;28;20030;-68
2022/07/13 07:58:50;;;;;;;3.33;1.38;;;;;;;26.37;38.33;99142.84;5026987;28;20053;-68
2022/07/13 08:01:15;;;;;;;2.65;1.15;;;;;;;26.39;38.28;99154.28;5026305;28;20061;-68
2022/07/13 08:03:41;;;;;;;2.60;1.05;;;;;;;26.39;38.45;99143.44;5026695;28;20108;-67
2022/07/13 08:06:07;;;;;;;6.15;1.50;;;;;;;26.37;38.32;99148.25;5027370;28;20101;-69
2022/07/13 08:08:32;;;;;;;3.78;0.98;;;;;;;26.36;38.57;99152.03;5027166;28;20038;-68
2022/07/13 08:10:57;;;;;;;3.42;1.10;;;;;;;26.33;38.59;99139.75;5026696;28;20030;-68
2022/07/13 08:13:23;;;;;;;3.13;1.13;;;;;;;26.30;38.41;99142.97;5026884;28;20033;-67
2022/07/13 08:15:49;;;;;;;6.97;1.42;;;;;;;26.30;38.00;99139.41;5026729;28;20069;-70
2022/07/13 08:18:14;;;;;;;1.60;0.98;;;;;;;26.28;37.83;99139.66;5032196;28;20093;-68
2022/07/13 08:20:40;;;;;;;3.17;0.98;;;;;;;26.28;37.52;99144.22;5026791;28;20025;-67
2022/07/13 08:23:50;;;;;;;2.03;1.00;;;;;;;26.28;37.13;99138.81;5026843;28;20093;-68
2022/07/13 08:25:51;;;;;;;2.97;1.10;;;;;;;26.27;38.09;99134.44;5026776;28;20139;-70
2022/07/13 08:28:16;;;;;;;1.58;1.00;;;;;;;26.30;38.32;99128.56;5026227;28;20034;-66
2022/07/13 08:30:41;;;;;;;1.98;1.08;;;;;;;26.32;38.15;99132.66;5031347;28;20072;-67
2022/07/13 08:33:07;;;;;;;1.65;0.93;;;;;;;26.34;37.59;99137.88;5027686;28;20042;-68
2022/07/13 08:38:35;;;;;;;3.60;1.10;;;;;;;26.32;37.97;99134.56;5026245;28;20083;-68
2022/07/13 08:41:01;;;;;;;2.65;1.02;;;;;;;26.34;38.10;99138.69;5026547;28;20052;-68
2022/07/13 08:43:27;;;;;;;2.47;1.20;;;;;;;26.37;37.67;99142.84;5025975;28;20061;-67
2022/07/13 08:45:53;;;;;;;3.05;1.27;;;;;;;26.38;37.20;99133.66;5026261;28;20266;-67
2022/07/13 08:48:31;;;;;;;1.67;0.90;;;;;;;26.39;37.34;99132.59;5025370;28;20038;-67
2022/07/13 08:50:57;;;;;;;3.65;1.20;;;;;;;26.39;37.71;99129.03;5024349;28;20029;-66
2022/07/13 08:53:24;;;;;;;2.97;1.20;;;;;;;26.38;37.54;99130.94;5024735;28;20064;-66
2022/07/13 08:55:50;;;;;;;3.55;1.05;;;;;;;26.35;37.55;99115.13;5026224;28;20109;-68
2022/07/13 08:58:18;;;;;;;5.25;1.20;;;;;;;26.37;38.17;99121.16;5026881;28;20029;-68
2022/07/13 09:00:43;;;;;;;7.90;1.27;;;;;;;26.37;38.41;99123.00;5024653;28;20026;-68
2022/07/13 09:03:10;;;;;;;1.80;0.85;;;;;;;26.34;38.35;99117.00;5024373;28;20040;-69
2022/07/13 09:05:35;;;;;;;10.70;1.77;;;;;;;26.30;38.40;99110.41;5027588;28;20056;-69
2022/07/13 09:08:03;;;;;;;5.60;1.95;;;;;;;26.29;38.53;99111.47;5029211;28;20219;-69
2022/07/13 09:10:29;;;;;;;7.45;1.40;;;;;;;26.27;38.17;99115.44;5028435;28;20054;-69
2022/07/13 09:12:55;;;;;;;3.55;1.10;;;;;;;26.27;38.11;99113.59;5028657;28;20080;-68
2022/07/13 09:15:20;;;;;;;9.60;1.25;;;;;;;26.25;38.24;99118.41;5029152;28;20048;-69
2022/07/13 09:17:47;;;;;;;4.05;1.13;;;;;;;26.19;38.26;99117.47;5028150;28;20044;-69
2022/07/13 09:20:12;;;;;;;6.25;1.08;;;;;;;26.16;37.92;99120.63;5026379;28;20026;-69
2022/07/13 09:22:55;;;;;;;1.73;1.25;;;;;;;26.14;37.52;99111.91;5027521;28;20147;-70
2022/07/13 09:25:39;;;;;;;2.53;1.00;;;;;;;26.10;37.75;99124.25;5026839;28;21504;-69
2022/07/13 09:28:10;;;;;;;1.55;1.02;;;;;;;26.07;37.54;99100.34;5027074;28;20045;-70
2022/07/13 09:30:40;;;;;;;2.95;1.05;;;;;;;26.03;37.87;99109.97;5028055;28;20041;-69
2022/07/13 09:33:06;;;;;;;2.67;1.10;;;;;;;26.03;37.63;99105.38;5026700;28;20140;-68
2022/07/13 09:35:49;;;;;;;3.10;1.20;;;;;;;26.07;37.73;99099.50;5027426;28;20147;-67
2022/07/13 09:38:29;;;;;;;6.43;1.10;;;;;;;26.08;38.05;99096.56;5023269;28;20029;-68
2022/07/13 09:40:55;;;;;;;1.23;0.82;;;;;;;26.11;38.02;99100.72;5022310;28;20026;-69
2022/07/13 09:46:09;;;;;;;5.38;1.17;;;;;;;26.14;37.89;99095.63;5025615;28;20041;-70
2022/07/13 09:48:38;;;;;;;2.15;1.00;;;;;;;26.16;37.91;99092.72;5025381;28;20042;-71
2022/07/13 09:51:03;;;;;;;3.88;0.90;;;;;;;26.17;37.91;99094.38;5026875;28;20014;-70
2022/07/13 09:53:31;;;;;;;2.63;1.15;;;;;;;26.17;37.85;99097.88;5039471;28;20094;-70
2022/07/13 09:55:59;;;;;;;3.35;1.10;;;;;;;26.16;38.01;99093.53;5020703;28;20041;-67
2022/07/13 09:58:45;;;;;;;5.47;1.30;;;;;;;26.13;38.11;99094.00;5026488;28;20034;-69
2022/07/13 10:01:11;;;;;;;5.40;1.23;;;;;;;26.12;38.12;99095.03;5026825;28;20243;-67
2022/07/13 10:03:38;;;;;;;2.47;1.27;;;;;;;26.14;38.06;99081.28;5026492;28;20030;-68
2022/07/13 10:06:20;;;;;;;1.10;0.80;;;;;;;26.14;37.49;99076.66;5028496;28;20092;-68
2022/07/13 10:08:46;;;;;;;3.05;1.20;;;;;;;26.15;38.00;99074.78;5024840;28;20030;-69
2022/07/13 10:11:12;;;;;;;3.40;0.90;;;;;;;26.15;37.85;99074.78;5021556;28;20026;-69
2022/07/13 10:13:38;;;;;;;5.75;1.10;;;;;;;26.14;37.74;99079.38;5023953;28;20026;-68
2022/07/13 10:16:03;;;;;;;1.30;0.80;;;;;;;26.13;37.97;99085.84;5024359;28;20049;-69
2022/07/13 10:18:32;;;;;;;2.63;0.93;;;;;;;26.13;38.07;99077.72;5008859;28;20255;-68
2022/07/13 10:21:10;;;;;;;1.90;1.02;;;;;;;26.17;37.58;99080.81;5027424;28;20181;-68
2022/07/13 10:23:38;;;;;;;4.85;1.17;;;;;;;26.15;37.24;99075.59;5025636;28;20056;-69
2022/07/13 10:26:03;;;;;;;5.57;1.58;;;;;;;26.04;37.04;99065.56;5027144;28;20025;-70
2022/07/13 10:28:29;;;;;;;4.47;1.63;;;;;;;26.01;36.89;99068.72;5027561;28;20109;-70
2022/07/13 10:30:55;;;;;;;1.85;0.88;;;;;;;25.98;37.25;99064.59;5028524;28;20080;-68
2022/07/13 10:33:24;;;;;;;2.65;1.10;;;;;;;26.00;37.15;99051.66;5027948;28;20057;-69
2022/07/13 10:35:55;;;;;;;1.52;0.90;;;;;;;26.04;36.82;99060.94;5028227;28;20053;-69
2022/07/13 10:38:28;;;;;;;2.63;1.05;;;;;;;26.05;36.79;99068.03;5025293;28;20026;-70
2022/07/13 10:41:19;;;;;;;2.00;1.23;;;;;;;25.98;36.50;99052.91;5028369;28;20034;-68
2022/07/13 10:43:55;;;;;;;3.58;1.13;;;;;;;25.94;37.00;99059.91;5025442;28;20025;-68
2022/07/13 10:46:47;;;;;;;3.10;0.93;;;;;;;25.96;36.93;99045.03;5028474;28;20053;-68
2022/07/13 10:49:32;;;;;;;3.83;1.00;;;;;;;26.00;36.69;99050.81;5027408;28;20109;-68
2022/07/13 10:52:19;;;;;;;1.73;0.90;;;;;;;26.02;36.63;99045.97;5020140;28;20206;-69
2022/07/13 10:55:13;;;;;;;3.22;0.82;;;;;;;26.05;36.28;99048.22;5028053;28;20053;-69
2022/07/13 10:57:44;;;;;;;4.80;1.10;;;;;;;26.06;36.08;99044.47;5027746;28;20223;-68
2022/07/13 11:00:28;;;;;;;1.83;0.80;;;;;;;26.07;36.07;99048.81;5019594;28;20049;-69
2022/07/13 11:03:01;;;;;;;3.95;0.90;;;;;;;26.08;36.20;99045.06;5027870;28;20095;-68
2022/07/13 11:05:30;;;;;;;2.35;0.95;;;;;;;26.03;36.15;99034.09;5027804;28;20033;-68
2022/07/13 11:07:56;;;;;;;4.70;1.10;;;;;;;25.96;36.44;99033.34;5027599;28;20026;-69
2022/07/13 11:10:31;;;;;;;5.78;0.82;;;;;;;25.86;36.59;99040.19;5017896;28;20279;-69
2022/07/13 11:13:12;;;;;;;2.97;0.90;;;;;;;25.88;36.71;99037.25;5021046;28;20092;-69
2022/07/13 11:15:56;;;;;;;1.77;0.75;;;;;;;25.92;36.46;99037.63;5027688;28;20046;-70
2022/07/13 11:18:21;;;;;;;3.45;0.88;;;;;;;25.89;36.86;99047.84;5027425;28;20026;-69
2022/07/13 11:21:18;;;;;;;6.63;1.25;;;;;;;25.91;37.06;99039.47;5018808;28;20056;-69
2022/07/13 11:26:51;;;;;;;3.60;0.98;;;;;;;25.97;37.14;99035.00;5009324;28;20089;-68
2022/07/13 11:29:16;;;;;;;3.13;1.15;;;;;;;25.97;37.51;99025.00;5030534;28;20037;-69
2022/07/13 11:31:42;;;;;;;2.50;1.00;;;;;;;25.96;37.21;99028.78;5023183;28;20302;-69
2022/07/13 11:34:07;;;;;;;1.67;1.10;;;;;;;25.94;37.03;99022.75;5026944;28;20030;-68
2022/07/13 11:36:33;;;;;;;1.75;1.02;;;;;;;25.93;37.25;99017.59;5030698;28;20088;-69
2022/07/13 11:38:59;;;;;;;3.45;0.95;;;;;;;25.98;37.34;99023.09;5027589;28;20150;-69
2022/07/13 11:41:25;;;;;;;1.92;0.98;;;;;;;26.01;37.51;99028.06;5027658;28;20025;-69
2022/07/13 11:43:51;;;;;;;2.17;0.90;;;;;;;26.07;37.41;99034.44;5010055;28;20047;-69